Time;durP1;ratioP1;P1;durP2;ratioP2;P2;SDS_P1;SDS_P2;PMS_P1;PMS_P2;Temp;Humidity;BMP_temperature;BMP_pressure;BME280_temperature;BME280_humidity;BME280_pressure;Samples;Min_cycle;Max_cycle;Signal;HPM_P1;HPM_P2
2022/06/05 00:01:08;;;;;;;12.43;11.20;;;17.80;99.90;;;;;;5070633;28;20471;-70
2022/06/05 00:03:48;;;;;;;12.40;11.30;;;17.80;99.90;;;;;;5071666;28;20454;-69
2022/06/05 00:06:21;;;;;;;13.50;12.40;;;17.80;99.90;;;;;;5071105;28;20446;-69
2022/06/05 00:09:00;;;;;;;13.10;11.87;;;17.70;99.90;;;;;;5071655;28;20454;-70
2022/06/05 00:11:31;;;;;;;13.53;12.33;;;17.60;99.90;;;;;;5070697;28;20490;-70
2022/06/05 00:13:58;;;;;;;14.40;12.87;;;17.60;99.90;;;;;;5071227;28;20486;-69
2022/06/05 00:16:28;;;;;;;13.90;12.70;;;17.50;99.90;;;;;;5070855;28;20981;-70
2022/06/05 00:18:55;;;;;;;12.60;11.37;;;17.50;99.90;;;;;;5071229;28;20964;-69
2022/06/05 00:21:23;;;;;;;13.40;12.10;;;17.50;99.90;;;;;;5070456;28;20471;-70
2022/06/05 00:23:50;;;;;;;13.60;12.30;;;17.50;99.90;;;;;;5071095;28;20961;-69
2022/06/05 00:26:26;;;;;;;15.17;13.57;;;17.50;99.90;;;;;;5070745;28;20456;-69
2022/06/05 00:29:01;;;;;;;14.03;12.83;;;17.40;99.90;;;;;;5071103;28;20496;-69
2022/06/05 00:31:36;;;;;;;13.40;12.20;;;17.40;99.90;;;;;;5070151;28;21010;-70
2022/06/05 00:34:03;;;;;;;14.33;13.13;;;17.50;99.90;;;;;;5071092;28;20482;-69
2022/06/05 00:36:43;;;;;;;13.50;12.30;;;17.50;99.90;;;;;;5070627;28;20538;-69
2022/06/05 00:39:15;;;;;;;13.80;12.40;;;17.60;99.90;;;;;;5070932;28;20453;-69
2022/06/05 00:41:55;;;;;;;14.70;13.40;;;17.60;99.90;;;;;;5069580;28;20472;-70
2022/06/05 00:44:27;;;;;;;14.30;12.90;;;17.70;99.90;;;;;;5070338;28;20453;-70
2022/06/05 00:46:55;;;;;;;13.23;12.07;;;17.60;99.90;;;;;;5070603;28;20443;-69
2022/06/05 00:49:30;;;;;;;13.00;11.80;;;17.60;99.90;;;;;;5070620;28;20454;-69
2022/06/05 00:51:56;;;;;;;13.37;12.17;;;17.60;99.90;;;;;;5069642;28;20471;-69
2022/06/05 00:54:23;;;;;;;15.10;13.60;;;17.60;99.90;;;;;;5069695;28;20489;-70
2022/06/05 00:56:50;;;;;;;13.13;12.03;;;17.50;99.90;;;;;;5070311;28;20837;-70
2022/06/05 00:59:18;;;;;;;13.50;12.30;;;17.50;99.90;;;;;;5070584;28;20447;-71
2022/06/05 01:01:45;;;;;;;14.47;13.13;;;17.40;99.90;;;;;;5069509;28;20501;-71
2022/06/05 01:04:15;;;;;;;14.43;13.13;;;17.50;99.90;;;;;;5070306;28;20470;-70
2022/06/05 01:06:41;;;;;;;12.10;11.00;;;17.50;99.90;;;;;;5070197;28;20451;-70
2022/06/05 01:09:08;;;;;;;14.87;13.40;;;17.50;99.90;;;;;;5070416;28;20454;-69
2022/06/05 01:11:44;;;;;;;15.50;12.70;;;17.60;99.90;;;;;;5069360;28;20477;-67
2022/06/05 01:14:19;;;;;;;13.40;12.20;;;17.60;99.90;;;;;;5070386;28;20557;-70
2022/06/05 01:16:56;;;;;;;13.23;12.07;;;17.60;99.90;;;;;;5070514;28;20455;-70
2022/06/05 01:19:41;;;;;;;13.20;12.00;;;17.60;99.90;;;;;;5070320;28;20953;-70
2022/06/05 01:22:30;;;;;;;12.83;11.63;;;17.60;99.90;;;;;;5070118;28;20498;-68
2022/06/05 01:25:10;;;;;;;13.07;11.73;;;17.70;99.90;;;;;;5070020;28;20813;-69
2022/06/05 01:27:42;;;;;;;13.07;11.87;;;17.70;99.90;;;;;;5070823;28;20439;-69
2022/06/05 01:30:13;;;;;;;13.37;12.13;;;17.70;99.90;;;;;;5069711;28;20457;-69
2022/06/05 01:32:44;;;;;;;12.13;11.03;;;17.60;99.90;;;;;;5070265;28;20447;-70
2022/06/05 01:35:17;;;;;;;13.70;12.37;;;17.60;99.90;;;;;;5070088;28;20846;-69
2022/06/05 01:37:50;;;;;;;13.60;12.10;;;17.60;99.90;;;;;;5070160;28;20443;-69
2022/06/05 01:40:21;;;;;;;12.60;11.50;;;17.60;99.90;;;;;;5069310;28;20457;-70
2022/06/05 01:42:57;;;;;;;13.10;11.90;;;17.60;99.90;;;;;;5070258;28;20457;-69
2022/06/05 01:45:30;;;;;;;12.40;11.40;;;17.60;99.90;;;;;;5069699;28;20450;-69
2022/06/05 01:47:59;;;;;;;11.90;10.90;;;17.60;99.90;;;;;;5069896;28;20820;-69
2022/06/05 01:50:32;;;;;;;13.13;11.93;;;17.60;99.90;;;;;;5068864;28;20496;-70
2022/06/05 01:53:02;;;;;;;12.90;11.80;;;17.60;99.90;;;;;;5069703;28;21108;-69
2022/06/05 01:55:33;;;;;;;13.80;12.60;;;17.70;99.90;;;;;;5069453;28;20457;-71
2022/06/05 01:58:06;;;;;;;13.63;12.23;;;17.60;99.90;;;;;;5069858;28;20457;-67
2022/06/05 02:00:33;;;;;;;13.67;12.40;;;17.60;99.90;;;;;;5068755;28;20475;-69
2022/06/05 02:03:07;;;;;;;13.27;11.90;;;17.50;99.90;;;;;;5069569;28;20447;-68
2022/06/05 02:05:41;;;;;;;13.90;12.70;;;17.60;99.90;;;;;;5069338;28;20457;-69
2022/06/05 02:08:13;;;;;;;14.13;12.53;;;17.50;99.90;;;;;;5073742;28;20478;-71
2022/06/05 02:10:46;;;;;;;15.00;13.70;;;17.50;99.90;;;;;;5073022;28;20482;-70
2022/06/05 02:13:14;;;;;;;15.37;13.87;;;17.40;99.90;;;;;;5073615;28;20442;-69
2022/06/05 02:15:41;;;;;;;14.10;12.90;;;17.50;99.90;;;;;;5073519;28;20453;-69
2022/06/05 02:18:07;;;;;;;13.63;12.43;;;17.50;99.90;;;;;;5073535;28;20995;-70
2022/06/05 02:20:35;;;;;;;14.77;13.50;;;17.50;99.90;;;;;;5072751;28;20494;-70
2022/06/05 02:23:06;;;;;;;13.37;12.23;;;17.50;99.90;;;;;;5073486;28;20446;-70
2022/06/05 02:25:34;;;;;;;13.97;12.77;;;17.50;99.90;;;;;;5073056;28;20937;-70
2022/06/05 02:28:02;;;;;;;13.87;12.47;;;17.50;99.90;;;;;;5073489;28;20447;-70
2022/06/05 02:30:39;;;;;;;14.63;13.13;;;17.50;99.90;;;;;;5072513;28;20473;-70
2022/06/05 02:33:14;;;;;;;13.27;12.07;;;17.40;99.90;;;;;;5073353;28;20450;-69
2022/06/05 02:35:50;;;;;;;14.20;12.90;;;17.30;99.90;;;;;;5073271;28;20454;-69
2022/06/05 02:38:35;;;;;;;15.37;14.07;;;17.30;99.90;;;;;;5073142;28;20461;-69
2022/06/05 02:41:08;;;;;;;15.97;14.30;;;17.30;99.90;;;;;;5072583;28;20466;-69
2022/06/05 02:43:41;;;;;;;15.87;14.43;;;17.30;99.90;;;;;;5073186;28;20967;-70
2022/06/05 02:46:14;;;;;;;15.87;14.47;;;17.30;99.90;;;;;;5072724;28;20454;-69
2022/06/05 02:48:51;;;;;;;16.73;15.13;;;17.40;99.90;;;;;;5072794;28;20945;-68
2022/06/05 02:51:22;;;;;;;17.70;16.00;;;17.30;99.90;;;;;;5072201;28;20470;-69
2022/06/05 02:53:52;;;;;;;16.20;14.70;;;17.20;99.90;;;;;;5072854;28;20479;-71
2022/06/05 02:56:20;;;;;;;16.60;15.00;;;17.20;99.90;;;;;;5072559;28;20443;-69
2022/06/05 02:58:49;;;;;;;16.30;14.80;;;17.20;99.90;;;;;;5072830;28;20455;-70
2022/06/05 03:04:02;;;;;;;17.53;15.83;;;17.20;99.90;;;;;;5072796;28;20434;-69
2022/06/05 03:06:30;;;;;;;19.90;16.67;;;17.20;99.90;;;;;;5072382;28;20818;-70
2022/06/05 03:08:57;;;;;;;16.40;14.90;;;17.20;99.90;;;;;;5072611;28;20450;-70
2022/06/05 03:11:24;;;;;;;16.10;14.70;;;17.30;99.90;;;;;;5071678;28;20473;-71
2022/06/05 03:13:51;;;;;;;15.40;13.80;;;17.30;99.90;;;;;;5072411;28;20479;-70
2022/06/05 03:16:19;;;;;;;15.73;14.33;;;17.30;99.90;;;;;;5072283;28;20447;-70
2022/06/05 03:18:46;;;;;;;15.27;13.83;;;17.30;99.90;;;;;;5071883;28;20490;-70
2022/06/05 03:21:13;;;;;;;14.63;13.33;;;17.40;99.90;;;;;;5071517;28;20463;-70
2022/06/05 03:23:39;;;;;;;15.20;13.80;;;17.40;99.90;;;;;;5072384;28;20473;-70
2022/06/05 03:26:10;;;;;;;14.40;13.30;;;17.50;99.90;;;;;;5071878;28;20447;-70
2022/06/05 03:28:37;;;;;;;15.13;13.73;;;17.40;99.90;;;;;;5073112;28;20451;-71
2022/06/05 03:31:05;;;;;;;15.03;13.63;;;17.40;99.90;;;;;;5071549;28;20471;-69
2022/06/05 03:33:33;;;;;;;16.17;14.77;;;17.40;99.90;;;;;;5072258;28;20453;-70
2022/06/05 03:36:00;;;;;;;15.27;13.97;;;17.30;99.90;;;;;;5071855;28;20451;-69
2022/06/05 03:38:27;;;;;;;15.10;13.70;;;17.40;99.90;;;;;;5072204;28;20447;-69
2022/06/05 03:40:53;;;;;;;15.87;14.57;;;17.50;99.90;;;;;;5071163;28;20471;-70
2022/06/05 03:43:20;;;;;;;16.60;15.07;;;17.40;99.90;;;;;;5072249;28;20538;-69
2022/06/05 03:45:47;;;;;;;16.57;15.03;;;17.40;99.90;;;;;;5071696;28;20447;-69
2022/06/05 03:48:14;;;;;;;15.10;13.70;;;17.40;99.90;;;;;;5071880;28;20447;-70
2022/06/05 03:50:42;;;;;;;14.77;13.47;;;17.60;99.90;;;;;;5071104;28;20852;-70
2022/06/05 03:53:09;;;;;;;14.67;13.37;;;17.60;99.90;;;;;;5071805;28;20443;-69
2022/06/05 03:55:36;;;;;;;17.13;15.70;;;17.60;99.90;;;;;;5071686;28;20486;-70
2022/06/05 03:58:02;;;;;;;15.40;14.10;;;17.60;99.90;;;;;;5072128;28;20451;-69
2022/06/05 04:00:29;;;;;;;15.60;14.17;;;17.70;99.90;;;;;;5071087;28;20474;-69
2022/06/05 04:02:56;;;;;;;15.23;13.93;;;17.60;99.90;;;;;;5070722;28;20451;-70
2022/06/05 04:05:23;;;;;;;15.97;14.57;;;17.60;99.90;;;;;;5071471;28;20449;-68
2022/06/05 04:07:51;;;;;;;16.50;15.00;;;17.60;99.90;;;;;;5071499;28;20450;-69
2022/06/05 04:10:19;;;;;;;16.20;14.80;;;17.60;99.90;;;;;;5070570;28;20443;-69
2022/06/05 04:12:47;;;;;;;16.93;15.37;;;17.50;99.90;;;;;;5071727;28;20963;-69
2022/06/05 04:15:14;;;;;;;15.80;14.40;;;17.50;99.90;;;;;;5071420;28;20475;-69
2022/06/05 04:17:41;;;;;;;17.93;16.23;;;17.50;99.90;;;;;;5071632;28;20953;-69
2022/06/05 04:20:10;;;;;;;18.30;16.70;;;17.50;99.90;;;;;;5070619;28;20451;-69
2022/06/05 04:22:37;;;;;;;17.67;15.90;;;17.50;99.90;;;;;;5071432;28;20825;-70
2022/06/05 04:25:08;;;;;;;18.40;16.63;;;17.50;99.90;;;;;;5070861;28;20861;-70
2022/06/05 04:27:37;;;;;;;18.37;16.77;;;17.40;99.90;;;;;;5071489;28;20538;-70
2022/06/05 04:30:04;;;;;;;21.10;19.30;;;17.40;99.90;;;;;;5069116;28;20451;-70
2022/06/05 04:32:31;;;;;;;21.83;19.83;;;17.40;99.90;;;;;;5071035;28;21020;-71
2022/06/05 04:34:57;;;;;;;20.93;18.93;;;17.30;99.90;;;;;;5070519;28;20992;-70
2022/06/05 04:37:24;;;;;;;23.40;21.20;;;17.30;99.90;;;;;;5070821;28;20525;-70
2022/06/05 04:39:51;;;;;;;23.20;21.10;;;17.30;99.90;;;;;;5070397;28;20455;-71
2022/06/05 04:42:20;;;;;;;25.30;22.90;;;17.20;99.90;;;;;;5070811;28;20471;-69
2022/06/05 04:44:46;;;;;;;23.23;21.13;;;17.20;99.90;;;;;;5070443;28;20884;-70
2022/06/05 04:47:13;;;;;;;24.33;22.03;;;17.30;99.90;;;;;;5070788;28;20447;-71
2022/06/05 04:49:40;;;;;;;23.30;21.10;;;17.40;99.90;;;;;;5070380;28;20465;-70
2022/06/05 04:52:07;;;;;;;23.47;21.30;;;17.40;99.90;;;;;;5069901;28;20462;-70
2022/06/05 04:54:34;;;;;;;23.30;21.27;;;17.40;99.90;;;;;;5070435;28;20495;-71
2022/06/05 04:57:01;;;;;;;24.13;21.83;;;17.40;99.90;;;;;;5070792;28;20451;-70
2022/06/05 04:59:29;;;;;;;23.40;21.00;;;17.40;99.90;;;;;;5070448;28;20937;-72
2022/06/05 05:01:56;;;;;;;23.70;21.50;;;17.40;99.90;;;;;;5069587;28;20479;-71
2022/06/05 05:04:22;;;;;;;25.10;22.57;;;17.40;99.90;;;;;;5069950;28;20534;-71
2022/06/05 05:06:49;;;;;;;25.27;22.70;;;17.30;99.90;;;;;;5070367;28;20435;-70
2022/06/05 05:09:16;;;;;;;25.00;22.70;;;17.20;99.90;;;;;;5070439;28;20447;-71
2022/06/05 05:11:43;;;;;;;26.00;23.30;;;17.30;99.90;;;;;;5070320;28;20470;-70
2022/06/05 05:14:11;;;;;;;25.37;22.90;;;17.30;99.90;;;;;;5070276;28;20458;-70
2022/06/05 05:16:40;;;;;;;25.30;22.87;;;17.30;99.90;;;;;;5070105;28;20443;-70
2022/06/05 05:19:07;;;;;;;25.97;23.67;;;17.30;99.90;;;;;;5070105;28;20450;-70
2022/06/05 05:21:34;;;;;;;27.20;24.30;;;17.30;99.90;;;;;;5069454;28;20469;-69
2022/06/05 05:24:00;;;;;;;25.90;23.57;;;17.20;99.90;;;;;;5070018;28;20453;-69
2022/06/05 05:26:29;;;;;;;28.20;25.40;;;17.30;99.90;;;;;;5069647;28;20446;-70
2022/06/05 05:28:57;;;;;;;28.47;25.63;;;17.20;99.90;;;;;;5069923;28;20447;-70
2022/06/05 05:31:27;;;;;;;28.13;25.50;;;17.30;99.90;;;;;;5069083;28;20560;-70
2022/06/05 05:33:56;;;;;;;27.70;24.70;;;17.20;99.90;;;;;;5070386;28;20501;-70
2022/06/05 05:36:24;;;;;;;28.00;25.30;;;17.20;99.90;;;;;;5069700;28;20569;-68
2022/06/05 05:44:22;;;;;;;28.60;25.70;;;17.10;99.90;;;;;;5069491;28;20422;-70
2022/06/05 05:46:48;;;;;;;30.13;27.40;;;17.10;99.90;;;;;;5070005;28;20447;-69
2022/06/05 05:49:17;;;;;;;31.27;28.27;;;17.10;99.90;;;;;;5069752;28;21020;-70
2022/06/05 05:51:44;;;;;;;29.80;27.03;;;17.10;99.90;;;;;;5068992;28;20466;-70
2022/06/05 05:54:11;;;;;;;28.30;25.50;;;17.10;99.90;;;;;;5069697;28;20445;-69
2022/06/05 05:56:39;;;;;;;27.23;24.47;;;17.20;99.90;;;;;;5069449;28;20454;-69
2022/06/05 05:59:06;;;;;;;30.27;27.37;;;17.20;99.90;;;;;;5069564;28;20450;-69
2022/06/05 06:01:33;;;;;;;30.37;27.17;;;17.20;99.90;;;;;;5068686;28;20475;-70
2022/06/05 06:04:01;;;;;;;30.50;27.53;;;17.20;99.90;;;;;;5069732;28;20466;-70
2022/06/05 06:06:31;;;;;;;32.87;29.50;;;17.20;99.90;;;;;;5069190;28;20443;-70
2022/06/05 06:08:59;;;;;;;31.50;28.40;;;17.20;99.90;;;;;;5069515;28;20446;-69
2022/06/05 06:11:26;;;;;;;33.10;29.67;;;17.30;99.90;;;;;;5068699;28;20467;-70
2022/06/05 06:13:53;;;;;;;34.50;30.80;;;17.30;99.90;;;;;;5069539;28;21148;-68
2022/06/05 06:16:20;;;;;;;31.83;28.63;;;17.30;99.90;;;;;;5069064;28;20479;-70
2022/06/05 06:18:46;;;;;;;30.60;27.70;;;17.30;99.90;;;;;;5069535;28;20543;-69
2022/06/05 06:21:13;;;;;;;31.83;28.80;;;17.40;99.90;;;;;;5068627;28;20463;-69
2022/06/05 06:23:41;;;;;;;31.07;28.17;;;17.40;99.90;;;;;;5069406;28;20542;-70
2022/06/05 06:26:09;;;;;;;30.37;27.47;;;17.40;99.90;;;;;;5069274;28;20580;-69
2022/06/05 06:28:36;;;;;;;30.53;27.77;;;17.40;99.90;;;;;;5069601;28;20451;-70
2022/06/05 06:31:05;;;;;;;29.13;26.27;;;17.30;99.90;;;;;;5068689;28;20463;-69
2022/06/05 06:33:31;;;;;;;26.27;23.57;;;17.40;99.90;;;;;;5069428;28;20445;-69
2022/06/05 06:36:01;;;;;;;27.00;24.30;;;17.30;99.90;;;;;;5069124;28;20475;-70
2022/06/05 06:38:28;;;;;;;26.67;24.00;;;17.30;99.90;;;;;;5069655;28;20450;-71
2022/06/05 06:41:01;;;;;;;24.13;21.60;;;17.40;99.90;;;;;;5068807;28;20473;-70
2022/06/05 06:43:28;;;;;;;22.20;20.00;;;17.30;99.90;;;;;;5069652;28;20453;-69
2022/06/05 06:45:55;;;;;;;21.00;19.20;;;17.30;99.90;;;;;;5069222;28;20818;-69
2022/06/05 06:48:22;;;;;;;20.43;18.33;;;17.30;99.90;;;;;;5069598;28;20825;-70
2022/06/05 06:50:49;;;;;;;20.17;18.37;;;17.30;99.90;;;;;;5068580;28;20558;-69
2022/06/05 06:53:16;;;;;;;20.97;18.73;;;17.30;99.90;;;;;;5070220;28;20877;-70
2022/06/05 06:55:42;;;;;;;18.83;17.03;;;17.30;99.90;;;;;;5073398;28;20479;-70
2022/06/05 06:58:11;;;;;;;20.30;18.20;;;17.30;99.90;;;;;;5073341;28;20932;-71
2022/06/05 07:00:38;;;;;;;18.10;16.30;;;17.30;99.90;;;;;;5072069;28;20478;-70
2022/06/05 07:03:05;;;;;;;18.63;16.80;;;17.30;99.90;;;;;;5072780;28;20450;-69
2022/06/05 07:05:32;;;;;;;17.83;16.23;;;17.30;99.90;;;;;;5072736;28;20450;-69
2022/06/05 07:07:59;;;;;;;17.20;15.47;;;17.20;99.90;;;;;;5072895;28;20465;-71
2022/06/05 07:10:26;;;;;;;16.10;14.57;;;17.20;99.90;;;;;;5071933;28;20467;-70
2022/06/05 07:12:53;;;;;;;16.50;15.03;;;17.20;99.90;;;;;;5072588;28;20538;-71
2022/06/05 07:15:22;;;;;;;15.97;14.13;;;17.20;99.90;;;;;;5072110;28;20478;-70
2022/06/05 07:17:48;;;;;;;15.30;13.90;;;17.20;99.90;;;;;;5072373;28;20928;-69
2022/06/05 07:20:16;;;;;;;15.67;14.07;;;17.20;99.90;;;;;;5071850;28;20483;-71
2022/06/05 07:22:42;;;;;;;14.37;13.00;;;17.20;99.90;;;;;;5072697;28;20533;-70
2022/06/05 07:25:09;;;;;;;14.40;13.10;;;17.20;99.90;;;;;;5072023;28;20935;-69
2022/06/05 07:27:36;;;;;;;15.43;13.90;;;17.20;99.90;;;;;;5072277;28;20807;-70
2022/06/05 07:30:04;;;;;;;14.10;12.77;;;17.20;99.90;;;;;;5071496;28;20447;-69
2022/06/05 07:32:32;;;;;;;13.37;12.03;;;17.20;99.90;;;;;;5072537;28;20450;-70
2022/06/05 07:34:59;;;;;;;13.40;12.20;;;17.10;99.90;;;;;;5071743;28;20450;-70
2022/06/05 07:37:26;;;;;;;13.30;11.97;;;17.10;99.90;;;;;;5072338;28;20452;-70
2022/06/05 07:39:53;;;;;;;15.30;13.80;;;17.10;99.90;;;;;;5071402;28;20956;-70
2022/06/05 07:42:19;;;;;;;14.20;12.80;;;17.10;99.90;;;;;;5071937;28;20473;-69
2022/06/05 07:44:46;;;;;;;14.87;13.43;;;17.20;99.90;;;;;;5071524;28;20446;-70
2022/06/05 07:47:13;;;;;;;15.37;13.00;;;17.20;99.90;;;;;;5071874;28;20542;-70
2022/06/05 07:49:42;;;;;;;9.40;8.60;;;17.10;99.90;;;;;;5071940;28;20554;-68
2022/06/05 07:54:56;;;;;;;11.30;10.20;;;17.10;99.90;;;;;;5071451;28;20944;-69
2022/06/05 07:57:23;;;;;;;10.60;9.60;;;17.20;99.90;;;;;;5071773;28;20458;-68
2022/06/05 07:59:50;;;;;;;10.27;9.23;;;17.20;99.90;;;;;;5071263;28;20494;-70
2022/06/05 08:02:21;;;;;;;8.33;7.50;;;17.20;99.90;;;;;;5071377;28;20524;-71
2022/06/05 08:04:50;;;;;;;8.00;7.30;;;17.30;99.90;;;;;;5070951;28;20534;-70
2022/06/05 08:07:20;;;;;;;10.10;7.57;;;17.30;99.90;;;;;;5071565;28;20448;-70
2022/06/05 08:09:47;;;;;;;9.13;8.27;;;17.40;99.90;;;;;;5070739;28;20457;-70
2022/06/05 08:12:17;;;;;;;9.50;8.60;;;17.50;99.90;;;;;;5071453;28;20463;-70
2022/06/05 08:14:47;;;;;;;10.63;7.80;;;17.60;99.90;;;;;;5071196;28;20527;-70
2022/06/05 08:17:17;;;;;;;8.47;7.60;;;17.70;99.90;;;;;;5071445;28;20482;-68
2022/06/05 08:19:44;;;;;;;10.47;7.60;;;17.80;99.90;;;;;;5071063;28;20447;-69
2022/06/05 08:22:15;;;;;;;9.07;7.30;;;18.00;99.90;;;;;;5070776;28;20477;-72
2022/06/05 08:24:42;;;;;;;6.57;5.90;;;18.20;99.90;;;;;;5071189;28;20454;-71
2022/06/05 08:27:11;;;;;;;7.57;5.67;;;18.30;99.90;;;;;;5071401;28;20443;-69
2022/06/05 08:29:38;;;;;;;5.67;5.10;;;18.50;99.90;;;;;;5071186;28;20450;-69
2022/06/05 08:32:05;;;;;;;8.17;5.67;;;18.70;99.90;;;;;;5070487;28;20467;-72
2022/06/05 08:34:32;;;;;;;5.30;4.80;;;19.00;99.90;;;;;;5070777;28;20442;-69
2022/06/05 08:42:41;;;;;;;5.17;3.73;;;20.20;99.90;;;;;;5070937;28;20445;-71
2022/06/05 08:45:12;;;;;;;4.20;3.70;;;20.50;99.90;;;;;;5070272;28;20953;-70
2022/06/05 08:47:48;;;;;;;4.87;4.03;;;20.80;99.90;;;;;;5071008;28;20443;-69
2022/06/05 08:50:27;;;;;;;3.83;3.30;;;21.10;99.90;;;;;;5070119;28;20449;-69
2022/06/05 08:52:58;;;;;;;4.60;3.50;;;21.40;99.90;;;;;;5070829;28;20470;-70
2022/06/05 08:55:31;;;;;;;3.93;3.33;;;21.40;99.90;;;;;;5070346;28;20509;-69
2022/06/05 08:58:03;;;;;;;5.03;3.30;;;21.60;99.90;;;;;;5070620;28;20443;-70
2022/06/05 09:00:35;;;;;;;4.87;2.97;;;21.80;99.90;;;;;;5069713;28;20536;-70
2022/06/05 09:03:07;;;;;;;3.40;2.50;;;22.00;99.90;;;;;;5070674;28;20469;-70
2022/06/05 09:05:38;;;;;;;3.20;2.40;;;22.10;99.90;;;;;;5070369;28;20436;-70
2022/06/05 09:08:11;;;;;;;4.70;2.47;;;22.40;99.90;;;;;;5070516;28;20439;-70
2022/06/05 09:10:43;;;;;;;3.50;2.00;;;22.70;99.90;;;;;;5069768;28;20459;-69
2022/06/05 09:13:14;;;;;;;3.90;2.50;;;23.00;99.90;;;;;;5070603;28;20455;-71
2022/06/05 09:15:46;;;;;;;3.70;1.90;;;23.00;99.90;;;;;;5069701;28;20474;-70
2022/06/05 09:18:18;;;;;;;5.93;1.93;;;22.90;99.90;;;;;;5070488;28;20443;-70
2022/06/05 09:20:55;;;;;;;4.43;2.17;;;22.60;99.90;;;;;;5069430;28;20513;-69
2022/06/05 09:23:27;;;;;;;3.27;2.10;;;22.40;99.90;;;;;;5070666;28;20447;-70
2022/06/05 09:26:02;;;;;;;3.80;2.10;;;22.50;99.90;;;;;;5070299;28;20450;-70
2022/06/05 09:28:53;;;;;;;3.50;2.13;;;22.50;99.90;;;;;;5070515;28;20454;-70
2022/06/05 09:31:41;;;;;;;4.23;2.37;;;22.70;99.90;;;;;;5069773;28;20558;-70
2022/06/05 09:34:13;;;;;;;3.60;2.20;;;22.70;99.90;;;;;;5070444;28;20453;-70
2022/06/05 09:36:45;;;;;;;4.20;2.27;;;22.80;99.90;;;;;;5070046;28;20938;-70
2022/06/05 09:39:23;;;;;;;2.97;2.20;;;23.10;99.90;;;;;;5070179;28;20929;-70
2022/06/05 09:42:08;;;;;;;3.13;2.63;;;23.20;99.90;;;;;;5069575;28;20471;-70
2022/06/05 09:44:51;;;;;;;3.80;2.53;;;23.30;99.90;;;;;;5069880;28;20443;-70
2022/06/05 09:47:24;;;;;;;3.80;2.20;;;23.50;99.90;;;;;;5070240;28;20445;-70
2022/06/05 09:49:58;;;;;;;3.67;2.87;;;23.70;99.90;;;;;;5069243;28;20446;-70
2022/06/05 09:52:27;;;;;;;3.63;2.10;;;23.90;99.90;;;;;;5069953;28;20471;-69
2022/06/05 09:55:02;;;;;;;3.43;2.00;;;24.20;99.90;;;;;;5069367;28;20487;-70
2022/06/05 10:00:33;;;;;;;3.70;1.93;;;24.70;99.90;;;;;;5068847;28;20481;-69
2022/06/05 10:03:04;;;;;;;4.13;2.00;;;24.60;99.90;;;;;;5070074;28;20447;-70
2022/06/05 10:05:33;;;;;;;4.07;2.60;;;24.10;99.90;;;;;;5069408;28;20451;-70
2022/06/05 10:08:11;;;;;;;3.93;2.17;;;23.90;99.90;;;;;;5069599;28;20953;-69
2022/06/05 10:10:40;;;;;;;3.27;1.80;;;23.80;99.90;;;;;;5068799;28;20462;-69
2022/06/05 10:13:19;;;;;;;3.80;2.17;;;23.80;99.90;;;;;;5069763;28;20498;-69
2022/06/05 10:15:53;;;;;;;4.33;2.30;;;23.80;99.90;;;;;;5069359;28;20839;-70
2022/06/05 10:18:26;;;;;;;5.13;2.23;;;23.80;99.90;;;;;;5069940;28;20545;-70
2022/06/05 10:21:00;;;;;;;4.70;2.27;;;24.00;99.90;;;;;;5068696;28;20475;-70
2022/06/05 10:23:39;;;;;;;2.67;1.80;;;24.20;99.90;;;;;;5069476;28;20450;-70
2022/06/05 10:26:25;;;;;;;3.83;2.03;;;24.70;99.90;;;;;;5069187;28;20818;-71
2022/06/05 10:29:10;;;;;;;3.40;2.10;;;25.20;99.90;;;;;;5071254;28;20454;-70
2022/06/05 10:31:38;;;;;;;4.70;2.30;;;25.70;99.90;;;;;;5072486;28;20471;-71
2022/06/05 10:34:13;;;;;;;3.80;2.37;;;26.20;99.90;;;;;;5073818;28;20443;-71
2022/06/05 10:36:56;;;;;;;5.80;2.17;;;26.50;99.90;;;;;;5073207;28;20572;-70
2022/06/05 10:39:29;;;;;;;3.60;2.10;;;26.30;99.90;;;;;;5073264;28;20451;-71
2022/06/05 10:42:24;;;;;;;6.03;2.50;;;26.00;99.90;;;;;;5071912;28;20477;-70
2022/06/05 10:45:23;;;;;;;4.20;2.80;;;25.60;99.90;;;;;;5072948;28;20442;-70
2022/06/05 10:48:02;;;;;;;5.60;2.13;;;25.10;99.90;;;;;;5067884;28;20960;-70
2022/06/05 10:50:35;;;;;;;7.40;3.07;;;24.50;99.90;;;;;;5072428;28;20479;-70
2022/06/05 10:53:11;;;;;;;5.40;4.43;;;24.10;99.90;;;;;;5073247;28;20812;-70
2022/06/05 10:55:59;;;;;;;8.00;4.47;;;23.70;99.90;;;;;;5072584;28;20443;-68
2022/06/05 10:58:33;;;;;;;8.10;4.10;;;23.10;99.90;;;;;;5072752;28;20446;-71
2022/06/05 11:01:06;;;;;;;5.97;4.40;;;22.50;99.90;;;;;;5072227;28;20471;-70
2022/06/05 11:03:45;;;;;;;8.30;4.93;;;21.90;99.90;;;;;;5073042;28;20537;-71
2022/06/05 11:06:24;;;;;;;4.53;4.00;;;21.40;99.90;;;;;;5072413;28;20450;-70
2022/06/05 11:09:03;;;;;;;6.53;4.50;;;21.10;99.90;;;;;;5072664;28;20496;-71
2022/06/05 11:14:27;;;;;;;8.90;4.67;;;20.70;99.90;;;;;;5072283;28;20426;-70
2022/06/05 11:17:00;;;;;;;6.20;4.70;;;20.60;99.90;;;;;;5072566;28;20479;-70
2022/06/05 11:19:36;;;;;;;4.87;4.30;;;20.50;99.90;;;;;;5072474;28;20447;-71
2022/06/05 11:22:07;;;;;;;5.20;4.30;;;20.40;99.90;;;;;;5071937;28;20468;-70
2022/06/05 11:24:40;;;;;;;5.10;4.50;;;20.30;99.90;;;;;;5072226;28;20451;-70
2022/06/05 11:27:12;;;;;;;5.17;4.20;;;20.30;99.90;;;;;;5072518;28;20458;-70
2022/06/05 11:29:50;;;;;;;6.17;4.20;;;20.30;99.90;;;;;;5072319;28;20443;-69
2022/06/05 11:32:28;;;;;;;9.43;5.50;;;20.40;99.90;;;;;;5072403;28;20471;-70
2022/06/05 11:35:02;;;;;;;6.20;4.97;;;20.50;99.90;;;;;;5071995;28;20443;-70
2022/06/05 11:37:53;;;;;;;6.70;4.80;;;20.70;99.90;;;;;;5072287;28;20481;-70
2022/06/05 11:40:29;;;;;;;6.83;4.60;;;20.70;99.90;;;;;;5070545;28;20462;-69
2022/06/05 11:43:23;;;;;;;5.20;4.70;;;20.70;99.90;;;;;;5072484;28;20959;-69
2022/06/05 11:45:55;;;;;;;4.67;4.17;;;20.80;99.90;;;;;;5071890;28;20439;-69
2022/06/05 11:48:30;;;;;;;6.10;4.00;;;20.90;99.90;;;;;;5072121;28;20445;-69
2022/06/05 11:51:05;;;;;;;7.93;3.70;;;21.00;99.90;;;;;;5071147;28;20549;-70
2022/06/05 11:53:42;;;;;;;5.90;4.23;;;21.20;99.90;;;;;;5072266;28;20438;-67
2022/06/05 11:56:33;;;;;;;4.73;4.00;;;21.40;99.90;;;;;;5071872;28;20454;-69
2022/06/05 11:59:10;;;;;;;5.53;3.37;;;21.70;99.90;;;;;;5072024;28;20451;-70
2022/06/05 12:01:44;;;;;;;5.30;3.60;;;22.30;99.90;;;;;;5071224;28;20844;-70
2022/06/05 12:04:21;;;;;;;5.23;3.57;;;23.10;99.90;;;;;;5072165;28;20450;-70
2022/06/05 12:06:51;;;;;;;4.60;3.60;;;24.60;99.90;;;;;;5072050;28;20438;-69
2022/06/05 12:09:21;;;;;;;4.80;3.23;;;26.10;99.90;;;;;;5071822;28;20443;-70
2022/06/05 12:11:54;;;;;;;6.40;3.50;;;27.00;99.90;;;;;;5070887;28;20473;-70
2022/06/05 12:14:26;;;;;;;6.67;3.43;;;28.30;99.90;;;;;;5071369;28;20447;-70
2022/06/05 12:17:03;;;;;;;4.03;3.10;;;28.80;99.90;;;;;;5071706;28;20485;-70
2022/06/05 12:19:47;;;;;;;6.60;2.63;;;29.00;99.90;;;;;;5071446;28;20447;-70
2022/06/05 12:22:21;;;;;;;5.20;3.40;;;29.30;99.90;;;;;;5071555;28;20863;-70
2022/06/05 12:24:55;;;;;;;4.30;2.60;;;29.40;99.90;;;;;;5071194;28;20446;-71
2022/06/05 12:27:22;;;;;;;4.73;2.40;;;29.90;99.90;;;;;;5071401;28;20435;-70
2022/06/05 12:29:54;;;;;;;4.00;2.90;;;30.30;99.90;;;;;;5070639;28;20450;-70
2022/06/05 12:32:30;;;;;;;4.30;2.50;;;30.30;99.90;;;;;;5070940;28;20476;-70
2022/06/05 12:35:04;;;;;;;3.70;2.53;;;30.10;99.90;;;;;;5070819;28;20447;-70
2022/06/05 12:37:38;;;;;;;4.93;2.30;;;29.80;99.90;;;;;;5071172;28;20487;-70
2022/06/05 12:40:15;;;;;;;4.60;2.70;;;29.50;99.90;;;;;;5070145;28;20447;-70
2022/06/05 12:42:48;;;;;;;4.70;2.73;;;29.20;99.90;;;;;;5070906;28;20807;-71
2022/06/05 12:45:23;;;;;;;5.07;3.30;;;28.40;99.90;;;;;;5070591;28;20956;-70
2022/06/05 12:48:04;;;;;;;3.77;2.63;;;27.70;99.90;;;;;;5071222;28;21008;-69
2022/06/05 12:50:47;;;;;;;5.83;2.30;;;27.90;99.90;;;;;;5069389;28;20485;-71
2022/06/05 12:53:23;;;;;;;3.53;2.77;;;28.80;99.90;;;;;;5070698;28;20446;-71
2022/06/05 12:55:55;;;;;;;3.70;2.73;;;30.10;99.90;;;;;;5070531;28;20442;-70
2022/06/05 12:58:33;;;;;;;5.83;2.53;;;31.40;99.90;;;;;;5070673;28;20475;-70
2022/06/05 13:01:05;;;;;;;4.93;2.63;;;32.20;99.90;;;;;;5069774;28;20494;-71
2022/06/05 13:03:39;;;;;;;3.77;2.67;;;32.40;99.90;;;;;;5070537;28;20446;-68
2022/06/05 13:06:14;;;;;;;4.40;2.87;;;31.30;99.90;;;;;;5070257;28;20451;-70
2022/06/05 13:08:47;;;;;;;4.80;2.50;;;30.90;99.90;;;;;;5070592;28;20503;-69
2022/06/05 13:11:20;;;;;;;5.13;2.60;;;31.00;99.90;;;;;;5069679;28;20470;-69
2022/06/05 13:13:55;;;;;;;4.77;2.60;;;31.10;99.90;;;;;;5070419;28;21028;-71
2022/06/05 13:16:34;;;;;;;4.70;2.30;;;31.70;99.90;;;;;;5069910;28;20500;-69
2022/06/05 13:19:16;;;;;;;3.83;2.30;;;32.00;99.60;;;;;;5070300;28;20469;-69